sensor_id;sensor_type;location;lat;lon;timestamp;P1;durP1;ratioP1;P2;durP2;ratioP2
40046;SDS011;31510;48.122;11.576;2023-02-13T00:01:05;23.65;;;9.80;;
40046;SDS011;31510;48.122;11.576;2023-02-13T00:03:31;24.88;;;9.95;;
40046;SDS011;31510;48.122;11.576;2023-02-13T00:05:56;23.35;;;10.48;;
40046;SDS011;31510;48.122;11.576;2023-02-13T00:08:21;26.60;;;10.57;;
40046;SDS011;31510;48.122;11.576;2023-02-13T00:10:46;21.75;;;10.27;;
40046;SDS011;31510;48.122;11.576;2023-02-13T00:13:12;22.92;;;11.23;;
40046;SDS011;31510;48.122;11.576;2023-02-13T00:15:37;24.00;;;10.20;;
40046;SDS011;31510;48.122;11.576;2023-02-13T00:18:03;24.98;;;11.48;;
40046;SDS011;31510;48.122;11.576;2023-02-13T00:20:28;24.27;;;10.73;;
40046;SDS011;31510;48.122;11.576;2023-02-13T00:22:54;28.70;;;11.20;;
40046;SDS011;31510;48.122;11.576;2023-02-13T00:25:19;28.02;;;11.10;;
40046;SDS011;31510;48.122;11.576;2023-02-13T00:27:44;24.95;;;11.90;;
40046;SDS011;31510;48.122;11.576;2023-02-13T00:30:10;24.95;;;11.32;;
40046;SDS011;31510;48.122;11.576;2023-02-13T00:32:35;28.20;;;12.02;;
40046;SDS011;31510;48.122;11.576;2023-02-13T00:35:01;25.90;;;11.35;;
40046;SDS011;31510;48.122;11.576;2023-02-13T00:37:26;22.40;;;11.48;;
40046;SDS011;31510;48.122;11.576;2023-02-13T00:39:51;25.00;;;11.40;;
40046;SDS011;31510;48.122;11.576;2023-02-13T00:42:17;23.08;;;11.25;;
40046;SDS011;31510;48.122;11.576;2023-02-13T00:44:43;32.47;;;12.15;;
40046;SDS011;31510;48.122;11.576;2023-02-13T00:47:08;24.25;;;12.70;;
40046;SDS011;31510;48.122;11.576;2023-02-13T00:49:33;28.80;;;12.63;;
40046;SDS011;31510;48.122;11.576;2023-02-13T00:51:59;31.92;;;13.40;;
40046;SDS011;31510;48.122;11.576;2023-02-13T00:54:24;31.95;;;13.00;;
40046;SDS011;31510;48.122;11.576;2023-02-13T00:56:49;28.35;;;12.25;;
40046;SDS011;31510;48.122;11.576;2023-02-13T00:59:14;26.85;;;11.18;;
40046;SDS011;31510;48.122;11.576;2023-02-13T01:01:41;31.40;;;14.20;;
40046;SDS011;31510;48.122;11.576;2023-02-13T01:04:07;31.00;;;12.70;;
40046;SDS011;31510;48.122;11.576;2023-02-13T01:06:32;27.15;;;12.43;;
40046;SDS011;31510;48.122;11.576;2023-02-13T01:08:57;27.08;;;12.52;;
40046;SDS011;31510;48.122;11.576;2023-02-13T01:11:22;29.70;;;12.63;;
40046;SDS011;31510;48.122;11.576;2023-02-13T01:13:48;35.75;;;13.93;;
40046;SDS011;31510;48.122;11.576;2023-02-13T01:16:13;27.80;;;12.93;;
40046;SDS011;31510;48.122;11.576;2023-02-13T01:18:41;31.30;;;12.82;;
40046;SDS011;31510;48.122;11.576;2023-02-13T01:21:07;33.65;;;12.77;;
40046;SDS011;31510;48.122;11.576;2023-02-13T01:23:39;32.75;;;13.65;;
40046;SDS011;31510;48.122;11.576;2023-02-13T01:26:04;33.47;;;13.50;;
40046;SDS011;31510;48.122;11.576;2023-02-13T01:28:31;29.98;;;13.45;;
40046;SDS011;31510;48.122;11.576;2023-02-13T01:30:57;34.95;;;13.55;;
40046;SDS011;31510;48.122;11.576;2023-02-13T01:33:23;31.25;;;12.95;;
40046;SDS011;31510;48.122;11.576;2023-02-13T01:35:50;29.00;;;11.93;;
40046;SDS011;31510;48.122;11.576;2023-02-13T01:38:15;28.42;;;12.80;;
40046;SDS011;31510;48.122;11.576;2023-02-13T01:40:48;27.85;;;12.77;;
40046;SDS011;31510;48.122;11.576;2023-02-13T01:43:15;29.02;;;13.02;;
40046;SDS011;31510;48.122;11.576;2023-02-13T01:45:41;27.33;;;12.70;;
40046;SDS011;31510;48.122;11.576;2023-02-13T01:48:18;31.00;;;12.02;;
40046;SDS011;31510;48.122;11.576;2023-02-13T01:50:47;28.52;;;11.85;;
40046;SDS011;31510;48.122;11.576;2023-02-13T01:53:18;31.45;;;12.73;;
40046;SDS011;31510;48.122;11.576;2023-02-13T01:55:49;31.48;;;13.90;;
40046;SDS011;31510;48.122;11.576;2023-02-13T01:58:18;32.60;;;13.25;;
40046;SDS011;31510;48.122;11.576;2023-02-13T02:00:46;32.22;;;12.05;;
40046;SDS011;31510;48.122;11.576;2023-02-13T02:03:15;30.45;;;12.60;;
40046;SDS011;31510;48.122;11.576;2023-02-13T02:06:02;29.80;;;12.50;;
40046;SDS011;31510;48.122;11.576;2023-02-13T02:08:29;30.00;;;13.38;;
40046;SDS011;31510;48.122;11.576;2023-02-13T02:10:55;27.63;;;12.73;;
40046;SDS011;31510;48.122;11.576;2023-02-13T02:13:29;34.63;;;12.32;;
40046;SDS011;31510;48.122;11.576;2023-02-13T02:15:54;28.95;;;12.23;;
40046;SDS011;31510;48.122;11.576;2023-02-13T02:18:21;31.67;;;13.25;;
40046;SDS011;31510;48.122;11.576;2023-02-13T02:23:40;30.80;;;12.23;;
40046;SDS011;31510;48.122;11.576;2023-02-13T02:26:32;30.27;;;12.25;;
40046;SDS011;31510;48.122;11.576;2023-02-13T02:35:26;23.27;;;11.43;;
40046;SDS011;31510;48.122;11.576;2023-02-13T02:37:54;25.45;;;12.35;;
40046;SDS011;31510;48.122;11.576;2023-02-13T02:48:25;27.23;;;11.65;;
40046;SDS011;31510;48.122;11.576;2023-02-13T02:51:20;29.75;;;12.32;;
40046;SDS011;31510;48.122;11.576;2023-02-13T02:56:56;18.08;;;9.82;;
40046;SDS011;31510;48.122;11.576;2023-02-13T02:59:27;21.77;;;10.15;;
40046;SDS011;31510;48.122;11.576;2023-02-13T03:02:12;19.17;;;9.45;;
40046;SDS011;31510;48.122;11.576;2023-02-13T03:05:16;21.77;;;9.63;;
40046;SDS011;31510;48.122;11.576;2023-02-13T03:08:03;18.48;;;9.23;;
40046;SDS011;31510;48.122;11.576;2023-02-13T03:10:30;21.42;;;9.32;;
40046;SDS011;31510;48.122;11.576;2023-02-13T03:13:28;19.17;;;9.07;;
40046;SDS011;31510;48.122;11.576;2023-02-13T03:16:14;19.23;;;9.35;;
40046;SDS011;31510;48.122;11.576;2023-02-13T03:19:02;20.77;;;9.38;;
40046;SDS011;31510;48.122;11.576;2023-02-13T03:33:03;19.55;;;9.35;;
40046;SDS011;31510;48.122;11.576;2023-02-13T03:35:44;19.35;;;9.52;;
40046;SDS011;31510;48.122;11.576;2023-02-13T03:46:43;18.80;;;9.77;;
40046;SDS011;31510;48.122;11.576;2023-02-13T03:49:30;17.75;;;8.30;;
40046;SDS011;31510;48.122;11.576;2023-02-13T03:55:22;20.42;;;9.70;;
40046;SDS011;31510;48.122;11.576;2023-02-13T03:58:14;18.65;;;9.68;;
40046;SDS011;31510;48.122;11.576;2023-02-13T04:01:02;16.08;;;8.73;;
40046;SDS011;31510;48.122;11.576;2023-02-13T04:03:42;17.63;;;9.48;;
40046;SDS011;31510;48.122;11.576;2023-02-13T04:06:19;15.30;;;8.07;;
40046;SDS011;31510;48.122;11.576;2023-02-13T04:08:49;15.70;;;7.60;;
40046;SDS011;31510;48.122;11.576;2023-02-13T04:11:20;12.20;;;7.68;;
40046;SDS011;31510;48.122;11.576;2023-02-13T04:13:54;11.73;;;7.28;;
40046;SDS011;31510;48.122;11.576;2023-02-13T04:16:28;16.23;;;8.35;;
40046;SDS011;31510;48.122;11.576;2023-02-13T04:18:57;13.60;;;7.88;;
40046;SDS011;31510;48.122;11.576;2023-02-13T04:21:25;14.48;;;7.50;;
40046;SDS011;31510;48.122;11.576;2023-02-13T04:23:50;13.85;;;8.07;;
40046;SDS011;31510;48.122;11.576;2023-02-13T04:26:17;15.57;;;7.63;;
40046;SDS011;31510;48.122;11.576;2023-02-13T04:28:45;15.75;;;9.43;;
40046;SDS011;31510;48.122;11.576;2023-02-13T04:31:10;16.92;;;8.38;;
40046;SDS011;31510;48.122;11.576;2023-02-13T04:33:36;16.48;;;8.65;;
40046;SDS011;31510;48.122;11.576;2023-02-13T04:36:01;14.80;;;7.80;;
40046;SDS011;31510;48.122;11.576;2023-02-13T04:38:27;14.73;;;8.27;;
40046;SDS011;31510;48.122;11.576;2023-02-13T04:40:52;16.10;;;9.20;;
40046;SDS011;31510;48.122;11.576;2023-02-13T04:43:17;17.73;;;8.98;;
40046;SDS011;31510;48.122;11.576;2023-02-13T04:45:42;16.38;;;8.75;;
40046;SDS011;31510;48.122;11.576;2023-02-13T04:48:11;13.55;;;7.85;;
40046;SDS011;31510;48.122;11.576;2023-02-13T04:50:37;17.05;;;9.00;;
40046;SDS011;31510;48.122;11.576;2023-02-13T04:53:02;20.70;;;10.20;;
40046;SDS011;31510;48.122;11.576;2023-02-13T04:55:27;19.67;;;10.05;;
40046;SDS011;31510;48.122;11.576;2023-02-13T04:57:54;18.85;;;9.95;;
40046;SDS011;31510;48.122;11.576;2023-02-13T05:00:20;17.30;;;9.57;;
40046;SDS011;31510;48.122;11.576;2023-02-13T05:02:50;17.77;;;10.50;;
40046;SDS011;31510;48.122;11.576;2023-02-13T05:05:16;18.88;;;9.05;;
40046;SDS011;31510;48.122;11.576;2023-02-13T05:07:42;19.42;;;10.48;;
40046;SDS011;31510;48.122;11.576;2023-02-13T05:10:08;17.77;;;9.40;;
40046;SDS011;31510;48.122;11.576;2023-02-13T05:12:34;21.70;;;11.02;;
40046;SDS011;31510;48.122;11.576;2023-02-13T05:14:59;19.40;;;10.95;;
40046;SDS011;31510;48.122;11.576;2023-02-13T05:17:24;23.20;;;11.60;;
40046;SDS011;31510;48.122;11.576;2023-02-13T05:19:50;17.70;;;10.10;;
40046;SDS011;31510;48.122;11.576;2023-02-13T05:22:15;21.05;;;10.35;;
40046;SDS011;31510;48.122;11.576;2023-02-13T05:24:58;18.15;;;8.95;;
40046;SDS011;31510;48.122;11.576;2023-02-13T05:30:00;16.15;;;9.20;;
40046;SDS011;31510;48.122;11.576;2023-02-13T05:32:25;19.17;;;9.38;;
40046;SDS011;31510;48.122;11.576;2023-02-13T05:34:51;16.00;;;9.15;;
40046;SDS011;31510;48.122;11.576;2023-02-13T05:37:16;18.98;;;9.65;;
40046;SDS011;31510;48.122;11.576;2023-02-13T05:39:41;17.63;;;8.80;;
40046;SDS011;31510;48.122;11.576;2023-02-13T05:42:06;19.20;;;9.73;;
40046;SDS011;31510;48.122;11.576;2023-02-13T05:44:32;19.42;;;10.02;;
40046;SDS011;31510;48.122;11.576;2023-02-13T05:46:58;22.02;;;10.43;;
40046;SDS011;31510;48.122;11.576;2023-02-13T05:49:23;21.27;;;11.35;;
40046;SDS011;31510;48.122;11.576;2023-02-13T05:51:48;22.67;;;11.00;;
40046;SDS011;31510;48.122;11.576;2023-02-13T05:54:16;19.88;;;10.27;;
40046;SDS011;31510;48.122;11.576;2023-02-13T05:56:41;20.13;;;10.45;;
40046;SDS011;31510;48.122;11.576;2023-02-13T05:59:06;20.98;;;11.23;;
40046;SDS011;31510;48.122;11.576;2023-02-13T06:01:32;20.95;;;11.00;;
40046;SDS011;31510;48.122;11.576;2023-02-13T06:03:57;24.65;;;11.70;;
40046;SDS011;31510;48.122;11.576;2023-02-13T06:06:23;19.83;;;11.20;;
40046;SDS011;31510;48.122;11.576;2023-02-13T06:08:49;21.52;;;10.88;;
40046;SDS011;31510;48.122;11.576;2023-02-13T06:11:14;21.35;;;10.38;;
40046;SDS011;31510;48.122;11.576;2023-02-13T06:13:40;21.05;;;10.60;;
40046;SDS011;31510;48.122;11.576;2023-02-13T06:16:09;23.02;;;12.05;;
40046;SDS011;31510;48.122;11.576;2023-02-13T06:18:35;19.30;;;11.02;;
40046;SDS011;31510;48.122;11.576;2023-02-13T06:21:01;22.77;;;11.80;;
40046;SDS011;31510;48.122;11.576;2023-02-13T06:23:27;25.98;;;12.63;;
40046;SDS011;31510;48.122;11.576;2023-02-13T06:25:53;22.77;;;12.30;;
40046;SDS011;31510;48.122;11.576;2023-02-13T06:28:19;21.52;;;11.48;;
40046;SDS011;31510;48.122;11.576;2023-02-13T06:30:44;22.42;;;11.05;;
40046;SDS011;31510;48.122;11.576;2023-02-13T06:33:09;26.08;;;12.65;;
40046;SDS011;31510;48.122;11.576;2023-02-13T06:35:35;22.13;;;11.13;;
40046;SDS011;31510;48.122;11.576;2023-02-13T06:38:00;23.20;;;12.52;;
40046;SDS011;31510;48.122;11.576;2023-02-13T06:40:26;22.85;;;11.38;;
40046;SDS011;31510;48.122;11.576;2023-02-13T06:42:51;24.38;;;11.70;;
40046;SDS011;31510;48.122;11.576;2023-02-13T06:45:16;22.83;;;12.07;;
40046;SDS011;31510;48.122;11.576;2023-02-13T06:47:42;25.10;;;13.45;;
40046;SDS011;31510;48.122;11.576;2023-02-13T06:50:09;25.92;;;12.30;;
40046;SDS011;31510;48.122;11.576;2023-02-13T06:52:35;25.77;;;11.57;;
40046;SDS011;31510;48.122;11.576;2023-02-13T06:55:00;23.02;;;11.63;;
40046;SDS011;31510;48.122;11.576;2023-02-13T06:57:26;24.25;;;12.27;;
40046;SDS011;31510;48.122;11.576;2023-02-13T06:59:51;27.70;;;14.60;;
40046;SDS011;31510;48.122;11.576;2023-02-13T07:02:17;22.67;;;11.75;;
40046;SDS011;31510;48.122;11.576;2023-02-13T07:04:42;26.08;;;13.77;;
40046;SDS011;31510;48.122;11.576;2023-02-13T07:07:07;26.75;;;13.52;;
40046;SDS011;31510;48.122;11.576;2023-02-13T07:09:32;24.77;;;12.27;;
40046;SDS011;31510;48.122;11.576;2023-02-13T07:12:00;24.73;;;12.75;;
40046;SDS011;31510;48.122;11.576;2023-02-13T07:14:26;26.65;;;12.55;;
40046;SDS011;31510;48.122;11.576;2023-02-13T07:16:52;23.10;;;11.68;;
40046;SDS011;31510;48.122;11.576;2023-02-13T07:19:17;25.10;;;12.75;;
40046;SDS011;31510;48.122;11.576;2023-02-13T07:21:42;22.20;;;11.60;;
40046;SDS011;31510;48.122;11.576;2023-02-13T07:24:08;23.25;;;12.00;;
40046;SDS011;31510;48.122;11.576;2023-02-13T07:26:33;24.33;;;12.23;;
40046;SDS011;31510;48.122;11.576;2023-02-13T07:28:58;24.10;;;12.35;;
40046;SDS011;31510;48.122;11.576;2023-02-13T07:31:29;21.90;;;11.95;;
40046;SDS011;31510;48.122;11.576;2023-02-13T07:33:55;26.48;;;12.50;;
40046;SDS011;31510;48.122;11.576;2023-02-13T07:36:20;21.88;;;11.52;;
40046;SDS011;31510;48.122;11.576;2023-02-13T07:38:45;23.88;;;13.60;;
40046;SDS011;31510;48.122;11.576;2023-02-13T07:41:11;22.80;;;12.30;;
40046;SDS011;31510;48.122;11.576;2023-02-13T07:43:36;28.63;;;11.88;;
40046;SDS011;31510;48.122;11.576;2023-02-13T07:46:01;25.08;;;12.25;;
40046;SDS011;31510;48.122;11.576;2023-02-13T07:48:28;26.33;;;12.35;;
40046;SDS011;31510;48.122;11.576;2023-02-13T07:51:00;25.02;;;12.13;;
40046;SDS011;31510;48.122;11.576;2023-02-13T07:53:27;24.20;;;12.23;;
40046;SDS011;31510;48.122;11.576;2023-02-13T07:55:53;19.50;;;11.07;;
40046;SDS011;31510;48.122;11.576;2023-02-13T07:58:18;24.40;;;12.43;;
40046;SDS011;31510;48.122;11.576;2023-02-13T08:00:43;23.27;;;12.68;;
40046;SDS011;31510;48.122;11.576;2023-02-13T08:03:09;21.27;;;11.45;;
40046;SDS011;31510;48.122;11.576;2023-02-13T08:05:35;20.23;;;10.85;;
40046;SDS011;31510;48.122;11.576;2023-02-13T08:08:00;18.65;;;10.90;;
40046;SDS011;31510;48.122;11.576;2023-02-13T08:10:26;22.90;;;11.57;;
40046;SDS011;31510;48.122;11.576;2023-02-13T08:13:10;22.65;;;11.63;;
40046;SDS011;31510;48.122;11.576;2023-02-13T08:15:37;25.20;;;11.65;;
40046;SDS011;31510;48.122;11.576;2023-02-13T08:18:02;21.67;;;10.57;;
40046;SDS011;31510;48.122;11.576;2023-02-13T08:20:28;22.90;;;12.35;;
40046;SDS011;31510;48.122;11.576;2023-02-13T08:22:53;24.40;;;13.25;;
40046;SDS011;31510;48.122;11.576;2023-02-13T08:25:26;26.90;;;13.13;;
40046;SDS011;31510;48.122;11.576;2023-02-13T08:27:52;28.20;;;15.52;;
40046;SDS011;31510;48.122;11.576;2023-02-13T08:30:17;24.75;;;13.18;;
40046;SDS011;31510;48.122;11.576;2023-02-13T08:32:42;26.77;;;13.10;;
40046;SDS011;31510;48.122;11.576;2023-02-13T08:35:08;29.98;;;14.20;;
40046;SDS011;31510;48.122;11.576;2023-02-13T08:37:33;30.42;;;12.45;;
40046;SDS011;31510;48.122;11.576;2023-02-13T08:39:58;28.60;;;13.25;;
40046;SDS011;31510;48.122;11.576;2023-02-13T08:42:23;29.38;;;15.68;;
40046;SDS011;31510;48.122;11.576;2023-02-13T08:44:49;30.88;;;13.65;;
40046;SDS011;31510;48.122;11.576;2023-02-13T08:47:14;26.23;;;13.40;;
40046;SDS011;31510;48.122;11.576;2023-02-13T08:49:39;27.92;;;14.55;;
40046;SDS011;31510;48.122;11.576;2023-02-13T08:52:04;30.38;;;14.48;;
40046;SDS011;31510;48.122;11.576;2023-02-13T08:54:30;26.42;;;12.88;;
40046;SDS011;31510;48.122;11.576;2023-02-13T08:56:55;26.10;;;13.55;;
40046;SDS011;31510;48.122;11.576;2023-02-13T08:59:21;24.70;;;12.82;;
40046;SDS011;31510;48.122;11.576;2023-02-13T09:01:47;23.25;;;12.50;;
40046;SDS011;31510;48.122;11.576;2023-02-13T09:04:12;27.70;;;12.70;;
40046;SDS011;31510;48.122;11.576;2023-02-13T09:06:42;23.50;;;12.47;;
40046;SDS011;31510;48.122;11.576;2023-02-13T09:09:08;26.70;;;13.27;;
40046;SDS011;31510;48.122;11.576;2023-02-13T09:11:33;24.20;;;12.35;;
40046;SDS011;31510;48.122;11.576;2023-02-13T09:13:58;24.77;;;11.85;;
40046;SDS011;31510;48.122;11.576;2023-02-13T09:16:23;26.58;;;12.70;;
40046;SDS011;31510;48.122;11.576;2023-02-13T09:18:49;24.55;;;11.90;;
40046;SDS011;31510;48.122;11.576;2023-02-13T09:21:15;23.60;;;12.90;;
40046;SDS011;31510;48.122;11.576;2023-02-13T09:23:42;22.70;;;12.05;;
40046;SDS011;31510;48.122;11.576;2023-02-13T09:26:09;23.00;;;12.30;;
40046;SDS011;31510;48.122;11.576;2023-02-13T09:28:36;23.52;;;11.15;;
40046;SDS011;31510;48.122;11.576;2023-02-13T09:31:05;29.70;;;12.98;;
40046;SDS011;31510;48.122;11.576;2023-02-13T09:33:32;24.02;;;11.90;;
40046;SDS011;31510;48.122;11.576;2023-02-13T09:35:57;25.73;;;12.27;;
40046;SDS011;31510;48.122;11.576;2023-02-13T09:38:22;27.65;;;12.30;;
40046;SDS011;31510;48.122;11.576;2023-02-13T09:40:54;24.52;;;12.23;;
40046;SDS011;31510;48.122;11.576;2023-02-13T09:46:10;26.55;;;12.88;;
40046;SDS011;31510;48.122;11.576;2023-02-13T09:48:39;22.95;;;12.00;;
40046;SDS011;31510;48.122;11.576;2023-02-13T09:51:08;25.58;;;12.00;;
40046;SDS011;31510;48.122;11.576;2023-02-13T09:53:38;24.57;;;11.87;;
40046;SDS011;31510;48.122;11.576;2023-02-13T09:58:47;23.20;;;12.70;;
40046;SDS011;31510;48.122;11.576;2023-02-13T10:01:33;25.38;;;12.55;;
40046;SDS011;31510;48.122;11.576;2023-02-13T10:06:46;19.80;;;10.63;;
40046;SDS011;31510;48.122;11.576;2023-02-13T10:09:30;24.75;;;12.13;;
40046;SDS011;31510;48.122;11.576;2023-02-13T10:12:10;27.63;;;13.85;;
40046;SDS011;31510;48.122;11.576;2023-02-13T10:17:28;27.48;;;13.30;;
40046;SDS011;31510;48.122;11.576;2023-02-13T10:20:02;22.92;;;12.23;;
40046;SDS011;31510;48.122;11.576;2023-02-13T10:22:35;28.08;;;15.00;;
40046;SDS011;31510;48.122;11.576;2023-02-13T10:25:07;25.52;;;12.43;;
40046;SDS011;31510;48.122;11.576;2023-02-13T10:27:39;28.15;;;13.18;;
40046;SDS011;31510;48.122;11.576;2023-02-13T10:32:56;28.27;;;14.32;;
40046;SDS011;31510;48.122;11.576;2023-02-13T10:36:01;31.33;;;14.98;;
40046;SDS011;31510;48.122;11.576;2023-02-13T10:38:38;26.45;;;13.63;;
40046;SDS011;31510;48.122;11.576;2023-02-13T10:49:09;33.40;;;15.18;;
40046;SDS011;31510;48.122;11.576;2023-02-13T10:57:32;31.27;;;14.05;;
40046;SDS011;31510;48.122;11.576;2023-02-13T11:00:11;28.77;;;14.65;;
40046;SDS011;31510;48.122;11.576;2023-02-13T11:02:42;39.25;;;16.02;;
40046;SDS011;31510;48.122;11.576;2023-02-13T11:07:36;30.63;;;15.63;;
40046;SDS011;31510;48.122;11.576;2023-02-13T11:10:13;30.55;;;15.07;;
40046;SDS011;31510;48.122;11.576;2023-02-13T11:12:46;31.10;;;15.25;;
40046;SDS011;31510;48.122;11.576;2023-02-13T11:15:29;30.58;;;15.15;;
40046;SDS011;31510;48.122;11.576;2023-02-13T11:17:57;28.88;;;15.13;;
40046;SDS011;31510;48.122;11.576;2023-02-13T11:20:39;27.38;;;14.10;;
40046;SDS011;31510;48.122;11.576;2023-02-13T11:23:14;29.63;;;15.60;;
40046;SDS011;31510;48.122;11.576;2023-02-13T11:25:41;31.15;;;14.68;;
40046;SDS011;31510;48.122;11.576;2023-02-13T11:31:07;30.15;;;15.40;;
40046;SDS011;31510;48.122;11.576;2023-02-13T11:33:35;29.92;;;14.25;;
40046;SDS011;31510;48.122;11.576;2023-02-13T11:36:08;28.92;;;14.15;;
40046;SDS011;31510;48.122;11.576;2023-02-13T11:38:38;32.15;;;15.07;;
40046;SDS011;31510;48.122;11.576;2023-02-13T11:46:57;29.80;;;16.17;;
40046;SDS011;31510;48.122;11.576;2023-02-13T11:49:27;30.75;;;14.90;;
40046;SDS011;31510;48.122;11.576;2023-02-13T11:54:22;31.05;;;15.40;;
40046;SDS011;31510;48.122;11.576;2023-02-13T11:56:53;29.08;;;14.35;;
40046;SDS011;31510;48.122;11.576;2023-02-13T11:59:24;32.25;;;16.85;;
40046;SDS011;31510;48.122;11.576;2023-02-13T12:04:26;32.97;;;15.07;;
40046;SDS011;31510;48.122;11.576;2023-02-13T12:09:22;32.42;;;14.68;;
40046;SDS011;31510;48.122;11.576;2023-02-13T12:11:48;28.60;;;15.93;;
40046;SDS011;31510;48.122;11.576;2023-02-13T12:14:18;31.65;;;14.98;;
40046;SDS011;31510;48.122;11.576;2023-02-13T12:16:53;27.15;;;14.77;;
40046;SDS011;31510;48.122;11.576;2023-02-13T12:19:24;33.05;;;16.75;;
40046;SDS011;31510;48.122;11.576;2023-02-13T12:22:30;30.70;;;15.32;;
40046;SDS011;31510;48.122;11.576;2023-02-13T12:27:24;26.77;;;14.52;;
40046;SDS011;31510;48.122;11.576;2023-02-13T12:30:06;33.60;;;15.98;;
40046;SDS011;31510;48.122;11.576;2023-02-13T12:35:45;33.58;;;16.02;;
40046;SDS011;31510;48.122;11.576;2023-02-13T12:43:56;30.60;;;15.40;;
40046;SDS011;31510;48.122;11.576;2023-02-13T13:23:18;26.30;;;13.73;;
40046;SDS011;31510;48.122;11.576;2023-02-13T13:28:21;29.48;;;13.90;;
40046;SDS011;31510;48.122;11.576;2023-02-13T13:30:48;28.60;;;14.20;;
40046;SDS011;31510;48.122;11.576;2023-02-13T13:33:16;26.70;;;13.80;;
40046;SDS011;31510;48.122;11.576;2023-02-13T13:41:19;29.17;;;14.77;;
40046;SDS011;31510;48.122;11.576;2023-02-13T13:47:04;24.15;;;12.88;;
40046;SDS011;31510;48.122;11.576;2023-02-13T13:49:51;25.45;;;12.60;;
40046;SDS011;31510;48.122;11.576;2023-02-13T13:52:25;23.20;;;11.80;;
40046;SDS011;31510;48.122;11.576;2023-02-13T13:54:56;25.05;;;12.48;;
40046;SDS011;31510;48.122;11.576;2023-02-13T13:57:25;24.63;;;12.45;;
40046;SDS011;31510;48.122;11.576;2023-02-13T13:59:55;21.90;;;11.98;;
40046;SDS011;31510;48.122;11.576;2023-02-13T14:08:03;23.70;;;10.93;;
40046;SDS011;31510;48.122;11.576;2023-02-13T14:13:51;22.75;;;11.63;;
40046;SDS011;31510;48.122;11.576;2023-02-13T14:19:23;19.67;;;11.13;;
40046;SDS011;31510;48.122;11.576;2023-02-13T14:21:51;24.85;;;12.57;;
40046;SDS011;31510;48.122;11.576;2023-02-13T14:24:17;24.95;;;12.20;;
40046;SDS011;31510;48.122;11.576;2023-02-13T14:26:48;28.42;;;11.80;;
40046;SDS011;31510;48.122;11.576;2023-02-13T14:34:25;23.88;;;11.05;;
40046;SDS011;31510;48.122;11.576;2023-02-13T14:37:01;22.77;;;11.20;;
40046;SDS011;31510;48.122;11.576;2023-02-13T14:39:41;20.90;;;10.18;;
40046;SDS011;31510;48.122;11.576;2023-02-13T14:42:24;23.50;;;12.55;;
40046;SDS011;31510;48.122;11.576;2023-02-13T14:44:53;22.55;;;11.27;;
40046;SDS011;31510;48.122;11.576;2023-02-13T14:49:51;23.67;;;10.02;;
40046;SDS011;31510;48.122;11.576;2023-02-13T14:52:18;19.17;;;10.93;;
40046;SDS011;31510;48.122;11.576;2023-02-13T14:54:51;20.05;;;10.13;;
40046;SDS011;31510;48.122;11.576;2023-02-13T14:57:24;42.33;;;12.70;;
40046;SDS011;31510;48.122;11.576;2023-02-13T15:02:59;20.77;;;11.55;;
40046;SDS011;31510;48.122;11.576;2023-02-13T15:05:32;19.27;;;10.15;;
40046;SDS011;31510;48.122;11.576;2023-02-13T15:08:15;19.03;;;10.87;;
40046;SDS011;31510;48.122;11.576;2023-02-13T15:10:45;19.10;;;10.65;;
40046;SDS011;31510;48.122;11.576;2023-02-13T15:13:16;22.42;;;11.20;;
40046;SDS011;31510;48.122;11.576;2023-02-13T15:15:50;24.13;;;11.70;;
40046;SDS011;31510;48.122;11.576;2023-02-13T15:21:08;23.13;;;13.07;;
40046;SDS011;31510;48.122;11.576;2023-02-13T15:23:39;23.80;;;12.85;;
40046;SDS011;31510;48.122;11.576;2023-02-13T15:26:05;26.23;;;12.52;;
40046;SDS011;31510;48.122;11.576;2023-02-13T15:28:32;23.42;;;12.48;;
40046;SDS011;31510;48.122;11.576;2023-02-13T15:33:45;24.58;;;11.65;;
40046;SDS011;31510;48.122;11.576;2023-02-13T15:36:15;25.98;;;12.27;;
40046;SDS011;31510;48.122;11.576;2023-02-13T15:38:42;20.00;;;10.95;;
40046;SDS011;31510;48.122;11.576;2023-02-13T15:44:04;26.45;;;12.85;;
40046;SDS011;31510;48.122;11.576;2023-02-13T15:46:31;25.58;;;12.63;;
40046;SDS011;31510;48.122;11.576;2023-02-13T15:48:59;26.35;;;12.02;;
40046;SDS011;31510;48.122;11.576;2023-02-13T15:51:30;23.30;;;11.30;;
40046;SDS011;31510;48.122;11.576;2023-02-13T15:54:03;24.58;;;12.27;;
40046;SDS011;31510;48.122;11.576;2023-02-13T15:56:30;29.05;;;11.93;;
40046;SDS011;31510;48.122;11.576;2023-02-13T15:58:57;25.92;;;12.57;;
40046;SDS011;31510;48.122;11.576;2023-02-13T16:01:24;23.67;;;12.70;;
40046;SDS011;31510;48.122;11.576;2023-02-13T16:03:53;25.55;;;13.73;;
40046;SDS011;31510;48.122;11.576;2023-02-13T16:06:24;24.95;;;12.73;;
40046;SDS011;31510;48.122;11.576;2023-02-13T16:13:57;28.40;;;15.20;;
40046;SDS011;31510;48.122;11.576;2023-02-13T16:16:27;27.98;;;14.02;;
40046;SDS011;31510;48.122;11.576;2023-02-13T16:18:54;29.88;;;13.13;;
40046;SDS011;31510;48.122;11.576;2023-02-13T16:21:23;25.85;;;12.93;;
40046;SDS011;31510;48.122;11.576;2023-02-13T16:23:52;25.17;;;13.05;;
40046;SDS011;31510;48.122;11.576;2023-02-13T16:26:25;22.25;;;12.00;;
40046;SDS011;31510;48.122;11.576;2023-02-13T16:28:51;27.85;;;13.15;;
40046;SDS011;31510;48.122;11.576;2023-02-13T16:31:16;24.75;;;12.77;;
40046;SDS011;31510;48.122;11.576;2023-02-13T16:33:42;22.40;;;12.13;;
40046;SDS011;31510;48.122;11.576;2023-02-13T16:43:42;21.70;;;12.25;;
40046;SDS011;31510;48.122;11.576;2023-02-13T16:56:23;24.98;;;13.52;;
40046;SDS011;31510;48.122;11.576;2023-02-13T16:58:48;27.17;;;12.55;;
40046;SDS011;31510;48.122;11.576;2023-02-13T17:01:13;19.92;;;11.63;;
40046;SDS011;31510;48.122;11.576;2023-02-13T17:03:41;27.92;;;14.50;;
40046;SDS011;31510;48.122;11.576;2023-02-13T17:06:07;22.30;;;13.05;;
40046;SDS011;31510;48.122;11.576;2023-02-13T17:08:34;21.98;;;12.55;;
40046;SDS011;31510;48.122;11.576;2023-02-13T17:11:00;24.52;;;13.63;;
40046;SDS011;31510;48.122;11.576;2023-02-13T17:13:28;27.38;;;13.88;;
40046;SDS011;31510;48.122;11.576;2023-02-13T17:15:53;21.50;;;12.10;;
40046;SDS011;31510;48.122;11.576;2023-02-13T17:18:19;23.35;;;12.77;;
40046;SDS011;31510;48.122;11.576;2023-02-13T17:20:45;24.58;;;13.30;;
40046;SDS011;31510;48.122;11.576;2023-02-13T17:23:14;23.55;;;13.07;;
40046;SDS011;31510;48.122;11.576;2023-02-13T17:25:41;22.58;;;12.15;;
40046;SDS011;31510;48.122;11.576;2023-02-13T17:28:17;28.20;;;14.07;;
40046;SDS011;31510;48.122;11.576;2023-02-13T17:30:44;30.15;;;15.32;;
40046;SDS011;31510;48.122;11.576;2023-02-13T17:33:13;29.35;;;14.40;;
40046;SDS011;31510;48.122;11.576;2023-02-13T17:35:40;22.33;;;11.68;;
40046;SDS011;31510;48.122;11.576;2023-02-13T17:38:05;26.58;;;13.90;;
40046;SDS011;31510;48.122;11.576;2023-02-13T17:40:33;27.92;;;13.68;;
40046;SDS011;31510;48.122;11.576;2023-02-13T17:42:58;28.17;;;13.80;;
40046;SDS011;31510;48.122;11.576;2023-02-13T17:45:25;26.73;;;13.30;;
40046;SDS011;31510;48.122;11.576;2023-02-13T17:47:52;29.05;;;15.55;;